TimeCDT,TemperatureF,Dew PointF,Humidity,Sea Level PressureIn,VisibilityMPH,Wind Direction,Wind SpeedMPH,Gust SpeedMPH,PrecipitationIn,Events,Conditions,WindDirDegrees,DateUTC
12:52 AM,62.1,57.9,86,29.69,10.0,Calm,Calm,-,N/A,,Clear,0,2013-09-18 05:52:00
1:49 AM,62.6,59.0,88,29.75,10.0,WSW,10.4,-,N/A,,Mostly Cloudy,250,2013-09-18 06:49:00
1:52 AM,63.0,59.0,87,29.73,10.0,WSW,9.2,-,N/A,,Mostly Cloudy,240,2013-09-18 06:52:00
2:15 AM,62.1,59.0,90,29.72,10.0,SSE,6.9,-,N/A,,Scattered Clouds,150,2013-09-18 07:15:00
2:52 AM,61.0,59.0,93,29.68,10.0,East,9.2,-,N/A,,Clear,90,2013-09-18 07:52:00
3:52 AM,62.1,60.1,93,29.59,10.0,ESE,19.6,-,0.00,,Overcast,110,2013-09-18 08:52:00
4:10 AM,64.0,60.1,87,29.59,10.0,NNE,11.5,19.6,0.00,,Mostly Cloudy,20,2013-09-18 09:10:00
4:17 AM,68.0,57.9,70,29.58,10.0,Variable,3.5,20.7,0.00,,Mostly Cloudy,0,2013-09-18 09:17:00
4:50 AM,64.4,60.8,88,29.61,10.0,NW,16.1,-,0.00,Thunderstorm,Mostly Cloudy,320,2013-09-18 09:50:00
4:52 AM,64.0,60.1,87,29.59,10.0,North,11.5,-,0.00,Thunderstorm,Mostly Cloudy,360,2013-09-18 09:52:00
5:14 AM,63.0,60.1,90,29.62,6.0,SE,16.1,-,0.02,Rain-Thunderstorm,Thunderstorms and Rain,130,2013-09-18 10:14:00
5:23 AM,62.1,60.1,93,29.59,10.0,East,12.7,-,0.02,Rain-Thunderstorm,Light Thunderstorms and Rain,100,2013-09-18 10:23:00
5:31 AM,62.1,60.1,93,29.59,10.0,ESE,13.8,-,0.02,,Scattered Clouds,110,2013-09-18 10:31:00
5:52 AM,63.0,61.0,93,29.55,10.0,East,12.7,-,0.02,,Mostly Cloudy,80,2013-09-18 10:52:00
6:10 AM,63.0,61.0,93,29.58,9.0,ENE,9.2,-,N/A,Thunderstorm,Thunderstorm,60,2013-09-18 11:10:00
6:28 AM,63.0,61.0,93,29.61,8.0,SSE,8.1,-,N/A,Thunderstorm,Overcast,160,2013-09-18 11:28:00
6:36 AM,63.0,61.0,93,29.58,7.0,East,13.8,-,0.00,Rain,Light Rain,100,2013-09-18 11:36:00
6:52 AM,63.0,61.0,93,29.62,9.0,West,11.5,-,0.01,,Overcast,270,2013-09-18 11:52:00
7:26 AM,63.0,61.0,93,29.65,9.0,West,5.8,-,N/A,,Overcast,280,2013-09-18 12:26:00
7:33 AM,63.0,61.0,93,29.65,9.0,West,4.6,-,N/A,,Overcast,280,2013-09-18 12:33:00
7:49 AM,62.6,60.8,94,29.64,9.0,Calm,Calm,-,N/A,,Overcast,0,2013-09-18 12:49:00
7:52 AM,63.0,61.0,93,29.63,9.0,Calm,Calm,-,N/A,,Overcast,0,2013-09-18 12:52:00
8:07 AM,64.0,61.0,90,29.64,9.0,SSE,3.5,-,N/A,,Overcast,150,2013-09-18 13:07:00
8:46 AM,62.6,62.6,100,29.62,1.8,ESE,5.8,-,N/A,,Overcast,120,2013-09-18 13:46:00
8:52 AM,63.0,62.1,97,29.60,1.2,ESE,5.8,-,N/A,,Overcast,120,2013-09-18 13:52:00
9:14 AM,64.0,63.0,96,29.60,1.0,ESE,8.1,-,N/A,,Overcast,120,2013-09-18 14:14:00
9:52 AM,64.9,63.0,93,29.58,1.8,SE,5.8,-,N/A,,Overcast,140,2013-09-18 14:52:00
10:52 AM,66.0,64.0,93,29.59,1.0,South,4.6,-,0.00,Rain,Light Rain,170,2013-09-18 15:52:00
11:11 AM,66.0,64.0,93,29.61,2.5,SSW,3.5,-,0.01,,Overcast,200,2013-09-18 16:11:00
11:30 AM,66.9,64.9,93,29.60,2.5,South,3.5,-,0.01,,Overcast,180,2013-09-18 16:30:00
11:47 AM,66.2,64.4,94,29.60,2.5,SW,3.5,-,0.01,,Overcast,230,2013-09-18 16:47:00
11:52 AM,66.9,64.9,93,29.60,2.5,SW,4.6,-,0.01,,Overcast,230,2013-09-18 16:52:00
11:59 AM,66.9,64.9,93,29.61,6.0,SW,4.6,-,N/A,,Overcast,230,2013-09-18 16:59:00
12:19 PM,68.0,64.9,90,29.61,8.0,WSW,4.6,-,0.00,,Overcast,250,2013-09-18 17:19:00
12:27 PM,68.0,64.9,90,29.61,10.0,WSW,5.8,-,0.00,,Overcast,240,2013-09-18 17:27:00
12:52 PM,68.0,64.9,90,29.60,10.0,West,6.9,-,0.00,,Overcast,260,2013-09-18 17:52:00
1:01 PM,69.1,64.9,87,29.60,10.0,WSW,4.6,-,N/A,,Overcast,250,2013-09-18 18:01:00
1:52 PM,71.1,64.0,78,29.58,10.0,WSW,5.8,-,N/A,,Overcast,240,2013-09-18 18:52:00
2:02 PM,71.1,64.0,78,29.60,10.0,SSW,8.1,-,N/A,,Overcast,200,2013-09-18 19:02:00
2:09 PM,71.1,64.0,78,29.60,10.0,SW,6.9,-,N/A,,Overcast,220,2013-09-18 19:09:00
2:52 PM,72.0,64.0,76,29.58,10.0,WSW,5.8,-,N/A,,Overcast,240,2013-09-18 19:52:00
3:24 PM,75.0,63.0,66,29.59,9.0,SW,4.6,-,N/A,,Scattered Clouds,230,2013-09-18 20:24:00
3:52 PM,73.9,64.0,71,29.58,10.0,Variable,3.5,-,N/A,,Partly Cloudy,0,2013-09-18 20:52:00
4:52 PM,75.9,64.0,67,29.56,10.0,Calm,Calm,-,N/A,,Clear,0,2013-09-18 21:52:00
5:52 PM,75.9,64.0,67,29.57,10.0,ESE,3.5,-,N/A,,Clear,120,2013-09-18 22:52:00
6:52 PM,73.0,66.0,79,29.58,9.0,East,4.6,-,N/A,,Clear,100,2013-09-18 23:52:00
7:52 PM,71.1,64.9,81,29.59,9.0,ENE,5.8,-,N/A,,Clear,60,2013-09-19 00:52:00
8:52 PM,69.1,64.9,87,29.59,10.0,ESE,12.7,-,N/A,,Partly Cloudy,110,2013-09-19 01:52:00
9:52 PM,68.0,63.0,84,29.62,10.0,Calm,Calm,-,N/A,,Clear,0,2013-09-19 02:52:00
10:52 PM,64.0,62.1,93,29.62,10.0,Calm,Calm,-,N/A,,Clear,0,2013-09-19 03:52:00
11:52 PM,66.9,59.0,76,29.65,10.0,WNW,17.3,26.5,N/A,,Partly Cloudy,300,2013-09-19 04:52:00